PWSweather.com
Personal Weather Stations
Station Observations
SKYDIVEKS
Skydive Kansas, Osage City, KS 66523

Skydive KansasOsage City, KS 66523

Lat: 38.636, Lon: -95.803

Elevation: 1080

Station Type: La Crosse

http://www.skydivekansas.com

Latest ConditionsUpdated 7:00:00 AM CDT Monday, Sep 26, 2016
Currently Today's Max Today's Min Today's Average
Temperature 85.6°F29.8°C 85.6°F29.8°C 85.6°F29.8°C 85.6°F29.8°C
Dew Point 68.6°F20.3°C 68.6°F20.3°C 68.6°F20.3°C 68.6°F20.3°C
Winds Calm Calm Calm SSECalm SSE - Calm Calm
Wind Gusts 5.6 mph9.0 kmh 5.6 mph9.0 kmh - -
Humidity 57% 57% 57% 57%
Pressure 29.23 in989.8 mb 29.23 in989.8 mb 29.18 in988.1 mb -
Hour Temp Dew Point Humidity Winds Wind Gusts Pressure Precip Precip Rate Daily Precip Total
07:00 AM 85.6°F29.8°C 68.6°F20.3°C 57% Calm Calm 5.6 mph9.0 kmh 29.23 in989.8 mb 0.00 in0.0 mm 0.00 in0.0 mm 0.00 in0.0 mm
06:45 AM 85.6°F29.8°C 68.6°F20.3°C 57% Calm Calm 5.6 mph9.0 kmh 29.23 in989.8 mb 0.00 in0.0 mm 0.00 in0.0 mm 0.00 in0.0 mm
06:30 AM 85.6°F29.8°C 68.6°F20.3°C 57% Calm Calm 5.6 mph9.0 kmh 29.23 in989.8 mb 0.00 in0.0 mm 0.00 in0.0 mm 0.00 in0.0 mm
06:15 AM 85.6°F29.8°C 68.6°F20.3°C 57% Calm Calm 5.6 mph9.0 kmh 29.22 in989.5 mb 0.00 in0.0 mm 0.00 in0.0 mm 0.00 in0.0 mm
06:00 AM 85.6°F29.8°C 68.6°F20.3°C 57% Calm Calm 5.6 mph9.0 kmh 29.22 in989.5 mb 0.00 in0.0 mm 0.00 in0.0 mm 0.00 in0.0 mm
05:45 AM 85.6°F29.8°C 68.6°F20.3°C 57% Calm Calm 5.6 mph9.0 kmh 29.22 in989.5 mb 0.00 in0.0 mm 0.00 in0.0 mm 0.00 in0.0 mm
05:30 AM 85.6°F29.8°C 68.6°F20.3°C 57% Calm Calm 5.6 mph9.0 kmh 29.22 in989.5 mb 0.00 in0.0 mm 0.00 in0.0 mm 0.00 in0.0 mm
05:15 AM 85.6°F29.8°C 68.6°F20.3°C 57% Calm Calm 5.6 mph9.0 kmh 29.22 in989.5 mb 0.00 in0.0 mm 0.00 in0.0 mm 0.00 in0.0 mm
05:00 AM 85.6°F29.8°C 68.6°F20.3°C 57% Calm Calm 5.6 mph9.0 kmh 29.22 in989.5 mb 0.00 in0.0 mm 0.00 in0.0 mm 0.00 in0.0 mm
04:45 AM 85.6°F29.8°C 68.6°F20.3°C 57% Calm Calm 5.6 mph9.0 kmh 29.22 in989.5 mb 0.00 in0.0 mm 0.00 in0.0 mm 0.00 in0.0 mm
04:30 AM 85.6°F29.8°C 68.6°F20.3°C 57% Calm Calm 5.6 mph9.0 kmh 29.22 in989.5 mb 0.00 in0.0 mm 0.00 in0.0 mm 0.00 in0.0 mm
04:15 AM 85.6°F29.8°C 68.6°F20.3°C 57% Calm Calm 5.6 mph9.0 kmh 29.22 in989.5 mb 0.00 in0.0 mm 0.00 in0.0 mm 0.00 in0.0 mm
04:00 AM 85.6°F29.8°C 68.6°F20.3°C 57% Calm Calm 5.6 mph9.0 kmh 29.22 in989.5 mb 0.00 in0.0 mm 0.00 in0.0 mm 0.00 in0.0 mm
03:45 AM 85.6°F29.8°C 68.6°F20.3°C 57% Calm Calm 5.6 mph9.0 kmh 29.21 in989.2 mb 0.00 in0.0 mm 0.00 in0.0 mm 0.00 in0.0 mm
03:30 AM 85.6°F29.8°C 68.6°F20.3°C 57% Calm Calm 5.6 mph9.0 kmh 29.21 in989.2 mb 0.00 in0.0 mm 0.00 in0.0 mm 0.00 in0.0 mm
03:15 AM 85.6°F29.8°C 68.6°F20.3°C 57% Calm Calm 5.6 mph9.0 kmh 29.21 in989.2 mb 0.00 in0.0 mm 0.00 in0.0 mm 0.00 in0.0 mm
03:00 AM 85.6°F29.8°C 68.6°F20.3°C 57% Calm Calm 5.6 mph9.0 kmh 29.20 in988.8 mb 0.00 in0.0 mm 0.00 in0.0 mm 0.00 in0.0 mm
02:45 AM 85.6°F29.8°C 68.6°F20.3°C 57% Calm Calm 5.6 mph9.0 kmh 29.20 in988.8 mb 0.00 in0.0 mm 0.00 in0.0 mm 0.00 in0.0 mm
02:30 AM 85.6°F29.8°C 68.6°F20.3°C 57% Calm Calm 5.6 mph9.0 kmh 29.20 in988.8 mb 0.00 in0.0 mm 0.00 in0.0 mm 0.00 in0.0 mm
02:15 AM 85.6°F29.8°C 68.6°F20.3°C 57% Calm Calm 5.6 mph9.0 kmh 29.20 in988.8 mb 0.00 in0.0 mm 0.00 in0.0 mm 0.00 in0.0 mm
02:00 AM 85.6°F29.8°C 68.6°F20.3°C 57% Calm Calm 5.6 mph9.0 kmh 29.20 in988.8 mb 0.00 in0.0 mm 0.00 in0.0 mm 0.00 in0.0 mm
01:45 AM 85.6°F29.8°C 68.6°F20.3°C 57% Calm Calm 5.6 mph9.0 kmh 29.20 in988.8 mb 0.00 in0.0 mm 0.00 in0.0 mm 0.00 in0.0 mm
01:30 AM 85.6°F29.8°C 68.6°F20.3°C 57% Calm Calm 5.6 mph9.0 kmh 29.20 in988.8 mb 0.00 in0.0 mm 0.00 in0.0 mm 0.00 in0.0 mm
01:15 AM 85.6°F29.8°C 68.6°F20.3°C 57% Calm Calm 5.6 mph9.0 kmh 29.19 in988.5 mb 0.00 in0.0 mm 0.00 in0.0 mm 0.00 in0.0 mm
01:00 AM 85.6°F29.8°C 68.6°F20.3°C 57% Calm Calm 5.6 mph9.0 kmh 29.20 in988.8 mb 0.00 in0.0 mm 0.00 in0.0 mm 0.00 in0.0 mm
12:45 AM 85.6°F29.8°C 68.6°F20.3°C 57% Calm Calm 5.6 mph9.0 kmh 29.18 in988.1 mb 0.00 in0.0 mm 0.00 in0.0 mm 0.00 in0.0 mm
12:30 AM 85.6°F29.8°C 68.6°F20.3°C 57% Calm Calm 5.6 mph9.0 kmh 29.19 in988.5 mb 0.00 in0.0 mm 0.00 in0.0 mm 0.00 in0.0 mm
12:15 AM 85.6°F29.8°C 68.6°F20.3°C 57% Calm Calm 5.6 mph9.0 kmh 29.18 in988.1 mb 0.00 in0.0 mm 0.00 in0.0 mm 0.00 in0.0 mm
12:00 AM 85.6°F29.8°C 68.6°F20.3°C 57% Calm Calm 5.6 mph9.0 kmh 29.18 in988.1 mb 0.00 in0.0 mm 0.00 in0.0 mm 0.00 in0.0 mm